Terminal Aerodrome Forecast
Issued by NWS

Home | Current Version | Previous Version | Text Only | Print | Product List | Glossary On
Versions: 1 2 3 4 5 6 7 8 9 10 11 12 13 14 15 16 17 18 19 20 21
000
FTUS45 KFGZ 211500 AAC
TAFGCN
TAF AMD
KGCN 211505Z 2115/2212 VRB05KT P6SM VCTS BKN050CB BKN080
      TEMPO 2115/2116 6SM -SHRA SCT025 BKN040
     FM211900 21009G16KT P6SM SCT080
     FM220100 VRB05KT P6SM SKC=

USA.gov is the U.S. government's official web portal to all federal, state and local government web resources and services.